Terminal Aerodrome Forecast
Issued by NWS

Home | Current Version | Previous Version | Text Only | Print | Product List | Glossary On
Versions: 1 2 3 4 5 6 7 8 9 10 11 12 13 14 15 16 17 18 19 20 21
528
FTUS46 KSEW 302320
TAFHQM
TAF
KHQM 302320Z 3100/3124 27014G22KT P6SM BKN040
     FM310400 30008KT P6SM SCT040
     FM311000 VRB03KT P6SM SCT015 BKN200
      TEMPO 3112/3116 BKN015
     FM311900 VRB03KT P6SM SCT030 OVC200=

USA.gov is the U.S. government's official web portal to all federal, state and local government web resources and services.